createdAt,value
2019-06-15T00:01:52.939Z,24.08
2019-06-15T00:04:21.539Z,24.13
2019-06-15T00:06:50.492Z,24.04
2019-06-15T00:09:19.135Z,24.23
2019-06-15T00:11:47.707Z,24.14
2019-06-15T00:14:16.405Z,24.12
2019-06-15T00:16:45.033Z,24.16
2019-06-15T00:19:13.768Z,24.17
2019-06-15T00:21:42.410Z,24.16
2019-06-15T00:24:11.081Z,24.08
2019-06-15T00:26:39.668Z,24.14
2019-06-15T00:29:08.374Z,24.02
2019-06-15T00:31:37.018Z,24.07
2019-06-15T00:34:05.593Z,24.09
2019-06-15T00:36:34.171Z,24.11
2019-06-15T00:39:03.150Z,24.10
2019-06-15T00:41:31.819Z,24.10
2019-06-15T00:44:00.525Z,24.11
2019-06-15T00:46:29.241Z,24.15
2019-06-15T00:48:57.781Z,24.14
2019-06-15T00:51:26.354Z,24.04
2019-06-15T00:53:54.994Z,24.03
2019-06-15T00:56:23.543Z,24.03
2019-06-15T00:58:53.169Z,23.95
2019-06-15T01:01:21.737Z,23.91
2019-06-15T01:03:52.044Z,23.86
2019-06-15T01:06:20.585Z,23.97
2019-06-15T01:08:49.189Z,23.90
2019-06-15T01:11:17.818Z,23.85
2019-06-15T01:13:46.512Z,23.68
2019-06-15T01:16:15.080Z,23.82
2019-06-15T01:18:43.777Z,23.81
2019-06-15T01:21:12.339Z,23.82
2019-06-15T01:23:40.942Z,23.83
2019-06-15T01:26:09.507Z,23.86
2019-06-15T01:28:38.114Z,23.87
2019-06-15T01:31:06.737Z,23.75
2019-06-15T01:33:35.638Z,23.80
2019-06-15T01:36:04.765Z,23.78
2019-06-15T01:38:33.391Z,23.75
2019-06-15T01:41:02.122Z,23.74
2019-06-15T01:43:30.829Z,23.78
2019-06-15T01:45:59.462Z,23.81
2019-06-15T01:48:28.149Z,23.77
2019-06-15T01:50:56.709Z,23.72
2019-06-15T01:53:25.393Z,23.64
2019-06-15T01:55:54.012Z,23.73
2019-06-15T01:58:22.652Z,23.66
2019-06-15T02:00:51.268Z,23.66
2019-06-15T02:03:19.923Z,23.69
2019-06-15T02:05:48.542Z,23.58
2019-06-15T02:08:17.145Z,23.62
2019-06-15T02:10:45.700Z,23.58
2019-06-15T02:13:14.336Z,23.59
2019-06-15T02:15:42.952Z,23.55
2019-06-15T02:18:11.673Z,23.56
2019-06-15T02:20:40.223Z,23.60
2019-06-15T02:23:08.900Z,23.56
2019-06-15T02:25:37.527Z,23.47
2019-06-15T02:28:06.252Z,23.51
2019-06-15T02:30:35.392Z,23.44
2019-06-15T02:33:04.651Z,23.48
2019-06-15T02:35:33.286Z,23.44
2019-06-15T02:38:02.009Z,23.51
2019-06-15T02:40:30.623Z,23.40
2019-06-15T02:42:59.241Z,23.38
2019-06-15T02:45:27.868Z,23.34
2019-06-15T02:47:56.605Z,23.39
2019-06-15T02:50:25.667Z,23.34
2019-06-15T02:52:54.379Z,23.41
2019-06-15T02:55:23.002Z,23.35
2019-06-15T02:57:51.603Z,23.34
2019-06-15T03:00:29.007Z,23.35
2019-06-15T03:02:57.732Z,23.24
2019-06-15T03:05:26.472Z,23.22
2019-06-15T03:07:55.104Z,23.27
2019-06-15T03:10:23.726Z,23.26
2019-06-15T03:12:52.780Z,23.22
2019-06-15T03:15:21.408Z,23.20
2019-06-15T03:17:50.026Z,23.15
2019-06-15T03:20:19.655Z,23.25
2019-06-15T03:22:48.249Z,23.16
2019-06-15T03:25:17.482Z,23.20
2019-06-15T03:27:46.184Z,23.12
2019-06-15T03:30:14.835Z,23.14
2019-06-15T03:32:43.434Z,23.08
2019-06-15T03:35:12.904Z,23.06
2019-06-15T03:37:41.566Z,22.99
2019-06-15T03:40:10.512Z,23.02
2019-06-15T03:42:39.207Z,22.89
2019-06-15T03:45:08.850Z,22.92
2019-06-15T03:47:37.592Z,22.90
2019-06-15T03:50:07.716Z,22.89
2019-06-15T03:52:36.307Z,22.86
2019-06-15T03:55:06.571Z,22.76
2019-06-15T03:57:35.286Z,22.88
2019-06-15T04:00:04.689Z,22.87
2019-06-15T04:02:33.389Z,22.89
2019-06-15T04:05:02.050Z,22.93
2019-06-15T04:07:30.685Z,22.93
2019-06-15T04:09:59.242Z,22.88
2019-06-15T04:12:27.855Z,22.93
2019-06-15T04:14:56.485Z,22.91
2019-06-15T04:17:25.109Z,22.98
2019-06-15T04:19:53.675Z,22.87
2019-06-15T04:22:22.463Z,22.86
2019-06-15T04:24:50.962Z,22.90
2019-06-15T04:27:19.631Z,22.91
2019-06-15T04:29:48.221Z,22.80
2019-06-15T04:32:16.856Z,22.85
2019-06-15T04:34:45.502Z,22.84
2019-06-15T04:37:14.058Z,22.80
2019-06-15T04:39:42.702Z,22.85
2019-06-15T04:42:11.400Z,23.01
2019-06-15T04:44:40.016Z,22.98
2019-06-15T04:47:08.596Z,23.02
2019-06-15T04:49:37.211Z,23.02
2019-06-15T04:52:05.848Z,23.00
2019-06-15T04:54:34.500Z,23.03
2019-06-15T04:57:03.092Z,23.01
2019-06-15T04:59:31.805Z,23.02
2019-06-15T05:02:00.729Z,23.06
2019-06-15T05:04:29.444Z,23.06
2019-06-15T05:06:57.991Z,23.12
2019-06-15T05:09:26.626Z,23.18
2019-06-15T05:11:55.198Z,23.23
2019-06-15T05:14:23.743Z,23.33
2019-06-15T05:16:52.323Z,23.39
2019-06-15T05:19:21.010Z,23.44
2019-06-15T05:21:49.593Z,23.57
2019-06-15T05:24:18.233Z,23.60
2019-06-15T05:26:46.794Z,23.57
2019-06-15T05:29:15.427Z,23.59
2019-06-15T05:31:44.020Z,23.53
2019-06-15T05:34:12.613Z,23.55
2019-06-15T05:36:41.230Z,23.66
2019-06-15T05:39:09.926Z,23.79
2019-06-15T05:41:38.511Z,23.92
2019-06-15T05:44:07.204Z,23.85
2019-06-15T05:46:35.756Z,23.73
2019-06-15T05:49:04.453Z,23.72
2019-06-15T05:51:33.016Z,23.81
2019-06-15T05:54:01.681Z,23.76
2019-06-15T05:56:33.408Z,23.66
2019-06-15T05:59:00.699Z,23.66
2019-06-15T06:01:29.278Z,23.71
2019-06-15T06:03:57.967Z,23.71
2019-06-15T06:06:26.598Z,23.78
2019-06-15T06:08:55.239Z,23.91
2019-06-15T06:11:23.868Z,24.05
2019-06-15T06:13:52.492Z,24.14
2019-06-15T06:16:21.047Z,24.33
2019-06-15T06:18:49.701Z,24.23
2019-06-15T06:21:18.267Z,24.27
2019-06-15T06:23:46.867Z,24.33
2019-06-15T06:26:15.583Z,24.31
2019-06-15T06:28:56.531Z,24.39
2019-06-15T06:31:14.446Z,24.37
2019-06-15T06:33:43.098Z,24.55
2019-06-15T06:36:11.727Z,24.73
2019-06-15T06:38:40.348Z,24.73
2019-06-15T06:41:08.977Z,24.92
2019-06-15T06:43:37.659Z,24.95
2019-06-15T06:46:06.220Z,25.19
2019-06-15T06:48:34.902Z,24.91
2019-06-15T06:51:03.463Z,25.02
2019-06-15T06:53:32.025Z,25.18
2019-06-15T06:56:00.699Z,25.03
2019-06-15T06:58:29.377Z,25.09
2019-06-15T07:00:58.012Z,25.11
2019-06-15T07:03:26.624Z,25.05
2019-06-15T07:05:55.202Z,24.98
2019-06-15T07:08:23.864Z,25.14
2019-06-15T07:10:52.551Z,25.65
2019-06-15T07:13:21.233Z,25.48
2019-06-15T07:15:49.800Z,25.40
2019-06-15T07:18:18.453Z,25.30
2019-06-15T07:20:47.091Z,25.11
2019-06-15T07:23:15.750Z,25.12
2019-06-15T07:25:44.377Z,24.97
2019-06-15T07:28:13.093Z,24.98
2019-06-15T07:30:43.083Z,24.92
2019-06-15T07:33:11.805Z,25.01
2019-06-15T07:35:40.359Z,25.06
2019-06-15T07:38:08.992Z,25.10
2019-06-15T07:40:37.631Z,25.18
2019-06-15T07:43:07.180Z,25.24
2019-06-15T07:45:35.761Z,25.24
2019-06-15T07:48:04.430Z,25.26
2019-06-15T07:50:33.088Z,25.53
2019-06-15T07:53:01.693Z,25.67
2019-06-15T07:55:30.293Z,25.89
2019-06-15T07:57:58.906Z,26.03
2019-06-15T08:00:27.486Z,26.04
2019-06-15T08:02:56.184Z,26.05
2019-06-15T08:05:24.757Z,26.29
2019-06-15T08:07:53.443Z,26.38
2019-06-15T08:10:22.201Z,26.30
2019-06-15T08:12:50.855Z,26.34
2019-06-15T08:15:19.489Z,26.70
2019-06-15T08:17:48.130Z,26.85
2019-06-15T08:20:18.732Z,26.78
2019-06-15T08:22:47.444Z,27.06
2019-06-15T08:25:16.084Z,26.93
2019-06-15T08:27:47.816Z,26.85
2019-06-15T08:30:18.215Z,27.15
2019-06-15T08:32:46.870Z,26.99
2019-06-15T08:35:15.565Z,27.00
2019-06-15T08:37:44.291Z,27.48
2019-06-15T08:40:14.549Z,27.42
2019-06-15T08:42:43.245Z,27.37
2019-06-15T08:45:12.089Z,27.40
2019-06-15T08:47:40.783Z,27.52
2019-06-15T08:50:09.625Z,27.28
2019-06-15T08:52:38.402Z,27.65
2019-06-15T08:55:07.056Z,27.58
2019-06-15T08:57:35.690Z,27.63
2019-06-15T09:00:06.382Z,27.18
2019-06-15T09:02:35.034Z,27.28
2019-06-15T09:05:07.374Z,27.26
2019-06-15T09:07:36.100Z,27.64
2019-06-15T09:10:07.128Z,27.40
2019-06-15T09:12:35.892Z,27.13
2019-06-15T09:15:09.420Z,27.61
2019-06-15T09:17:38.027Z,27.68
2019-06-15T09:20:10.561Z,27.61
2019-06-15T09:22:39.149Z,27.77
2019-06-15T09:25:08.227Z,27.90
2019-06-15T09:27:36.871Z,28.07
2019-06-15T09:30:07.051Z,28.04
2019-06-15T09:32:35.898Z,28.04
2019-06-15T09:35:06.740Z,28.07
2019-06-15T09:37:35.378Z,28.22
2019-06-15T09:40:05.689Z,28.59
2019-06-15T09:42:34.720Z,28.61
2019-06-15T09:45:04.570Z,28.46
2019-06-15T09:47:33.194Z,28.88
2019-06-15T09:50:01.822Z,28.95
2019-06-15T09:52:30.490Z,28.94
2019-06-15T09:54:59.213Z,29.03
2019-06-15T09:57:27.894Z,29.10
2019-06-15T09:59:56.456Z,28.85
2019-06-15T10:02:25.143Z,28.63
2019-06-15T10:04:53.697Z,28.45
2019-06-15T10:07:22.420Z,28.49
2019-06-15T10:09:51.057Z,28.45
2019-06-15T10:12:20.041Z,28.33
2019-06-15T10:14:48.691Z,28.18
2019-06-15T10:17:17.476Z,28.22
2019-06-15T10:19:46.051Z,28.22
2019-06-15T10:22:14.641Z,28.09
2019-06-15T10:24:43.352Z,28.26
2019-06-15T10:27:12.070Z,28.34
2019-06-15T10:29:42.197Z,28.33
2019-06-15T10:32:11.285Z,28.20
2019-06-15T10:34:39.886Z,28.22
2019-06-15T10:37:08.458Z,28.25
2019-06-15T10:39:37.078Z,28.31
2019-06-15T10:42:05.745Z,28.51
2019-06-15T10:44:34.935Z,28.60
2019-06-15T10:47:03.586Z,28.70
2019-06-15T10:49:32.249Z,28.67
2019-06-15T10:52:00.849Z,28.76
2019-06-15T10:54:29.419Z,28.98
2019-06-15T10:56:57.999Z,28.91
2019-06-15T10:59:26.628Z,28.94
2019-06-15T11:01:55.263Z,29.04
2019-06-15T11:04:23.955Z,28.97
2019-06-15T11:06:52.616Z,28.91
2019-06-15T11:09:21.228Z,28.92
2019-06-15T11:11:49.780Z,28.93
2019-06-15T11:14:18.462Z,28.94
2019-06-15T11:16:47.477Z,29.03
2019-06-15T11:19:16.080Z,29.10
2019-06-15T11:21:44.657Z,29.22
2019-06-15T11:24:13.289Z,29.30
2019-06-15T11:26:42.212Z,29.32
2019-06-15T11:29:11.226Z,29.32
2019-06-15T11:31:39.814Z,29.34
2019-06-15T11:34:08.394Z,29.51
2019-06-15T11:36:37.031Z,29.64
2019-06-15T11:39:07.172Z,29.80
2019-06-15T11:41:35.822Z,29.77
2019-06-15T11:44:04.877Z,30.02
2019-06-15T11:46:33.633Z,29.82
2019-06-15T11:49:02.357Z,29.97
2019-06-15T11:51:31.037Z,30.42
2019-06-15T11:53:59.655Z,30.97
2019-06-15T11:56:28.348Z,31.05
2019-06-15T11:58:57.125Z,30.95
2019-06-15T12:01:25.821Z,30.81
2019-06-15T12:03:54.623Z,30.84
2019-06-15T12:06:23.166Z,30.90
2019-06-15T12:08:51.761Z,30.60
2019-06-15T12:11:20.385Z,30.91
2019-06-15T12:13:49.010Z,30.77
2019-06-15T12:16:17.565Z,30.81
2019-06-15T12:18:46.200Z,31.03
2019-06-15T12:21:14.806Z,30.82
2019-06-15T12:23:43.410Z,31.03
2019-06-15T12:26:11.965Z,30.98
2019-06-15T12:28:40.727Z,30.75
2019-06-15T12:31:09.289Z,30.91
2019-06-15T12:33:37.888Z,31.02
2019-06-15T12:36:18.315Z,30.83
2019-06-15T12:38:36.913Z,31.04
2019-06-15T12:41:05.538Z,30.78
2019-06-15T12:43:34.169Z,30.85
2019-06-15T12:46:02.920Z,30.75
2019-06-15T12:48:31.545Z,30.76
2019-06-15T12:51:00.189Z,30.47
2019-06-15T12:53:28.761Z,30.31
2019-06-15T12:55:57.376Z,30.33
2019-06-15T12:58:26.001Z,30.22
2019-06-15T13:01:02.836Z,30.24
2019-06-15T13:03:25.064Z,30.38
2019-06-15T13:05:53.689Z,30.16
2019-06-15T13:08:22.277Z,30.16
2019-06-15T13:10:50.883Z,30.17
2019-06-15T13:13:19.503Z,30.21
2019-06-15T13:15:49.163Z,30.04
2019-06-15T13:18:17.773Z,30.07
2019-06-15T13:20:46.311Z,30.19
2019-06-15T13:23:14.956Z,30.35
2019-06-15T13:25:43.523Z,30.41
2019-06-15T13:28:14.363Z,30.60
2019-06-15T13:30:42.969Z,30.46
2019-06-15T13:33:11.585Z,30.59
2019-06-15T13:35:40.193Z,30.95
2019-06-15T13:38:08.829Z,31.02
2019-06-15T13:40:37.453Z,30.63
2019-06-15T13:43:06.183Z,30.42
2019-06-15T13:45:34.732Z,30.50
2019-06-15T13:48:03.411Z,30.71
2019-06-15T13:50:31.964Z,30.52
2019-06-15T13:53:00.732Z,30.59
2019-06-15T13:55:29.462Z,30.66
2019-06-15T13:57:58.134Z,30.63
2019-06-15T14:00:26.778Z,30.78
2019-06-15T14:02:55.449Z,30.56
2019-06-15T14:05:24.100Z,30.86
2019-06-15T14:07:53.036Z,30.89
2019-06-15T14:10:21.673Z,30.69
2019-06-15T14:12:50.278Z,30.79
2019-06-15T14:15:18.909Z,30.66
2019-06-15T14:17:47.505Z,30.62
2019-06-15T14:20:16.181Z,30.79
2019-06-15T14:22:44.799Z,30.67
2019-06-15T14:25:13.504Z,30.82
2019-06-15T14:27:42.146Z,30.75
2019-06-15T14:30:11.300Z,30.78
2019-06-15T14:32:40.015Z,30.93
2019-06-15T14:35:08.997Z,30.99
2019-06-15T14:37:37.598Z,30.84
2019-06-15T14:40:06.747Z,30.76
2019-06-15T14:42:35.349Z,30.52
2019-06-15T14:45:04.779Z,30.50
2019-06-15T14:47:33.476Z,30.60
2019-06-15T14:50:02.126Z,30.60
2019-06-15T14:52:30.727Z,30.58
2019-06-15T14:54:59.301Z,30.60
2019-06-15T14:57:27.987Z,30.63
2019-06-15T15:00:03.985Z,30.73
2019-06-15T15:02:26.974Z,30.48
2019-06-15T15:04:56.478Z,30.09
2019-06-15T15:07:26.333Z,29.77
2019-06-15T15:09:56.637Z,29.67
2019-06-15T15:12:26.719Z,29.78
2019-06-15T15:14:56.464Z,29.68
2019-06-15T15:17:26.905Z,29.22
2019-06-15T15:19:57.391Z,29.14
2019-06-15T15:22:26.981Z,29.11
2019-06-15T15:24:56.571Z,29.17
2019-06-15T15:27:27.144Z,28.80
2019-06-15T15:29:56.991Z,28.70
2019-06-15T15:32:31.208Z,28.53
2019-06-15T15:34:56.221Z,28.07
2019-06-15T15:37:26.907Z,28.11
2019-06-15T15:39:56.481Z,28.21
2019-06-15T15:42:26.766Z,28.05
2019-06-15T15:44:56.555Z,28.13
2019-06-15T15:47:27.285Z,28.08
2019-06-15T15:49:57.597Z,28.15
2019-06-15T15:52:26.959Z,28.00
2019-06-15T15:54:56.580Z,27.95
2019-06-15T15:57:26.502Z,27.79
2019-06-15T15:59:56.354Z,27.52
2019-06-15T16:02:35.702Z,27.48
2019-06-15T16:04:57.545Z,27.55
2019-06-15T16:07:27.709Z,27.38
2019-06-15T16:09:56.065Z,27.36
2019-06-15T16:12:24.736Z,27.44
2019-06-15T16:14:53.273Z,27.37
2019-06-15T16:17:21.879Z,27.12
2019-06-15T16:19:50.360Z,27.16
2019-06-15T16:22:18.992Z,27.26
2019-06-15T16:24:48.063Z,27.36
2019-06-15T16:27:16.818Z,27.16
2019-06-15T16:29:46.977Z,26.96
2019-06-15T16:32:16.203Z,26.91
2019-06-15T16:34:47.283Z,26.93
2019-06-15T16:37:16.987Z,26.88
2019-06-15T16:39:46.772Z,26.91
2019-06-15T16:42:15.518Z,27.01
2019-06-15T16:44:44.086Z,27.04
2019-06-15T16:47:12.860Z,27.03
2019-06-15T16:49:41.420Z,26.88
2019-06-15T16:52:10.145Z,26.91
2019-06-15T16:54:38.773Z,26.84
2019-06-15T16:57:07.364Z,26.64
2019-06-15T16:59:36.502Z,26.72
2019-06-15T17:02:06.495Z,26.51
2019-06-15T17:04:36.378Z,26.41
2019-06-15T17:07:07.146Z,26.42
2019-06-15T17:09:36.272Z,26.46
2019-06-15T17:12:06.560Z,26.32
2019-06-15T17:14:36.425Z,26.33
2019-06-15T17:17:05.521Z,26.28
2019-06-15T17:19:36.247Z,26.10
2019-06-15T17:22:16.719Z,26.05
2019-06-15T17:24:36.950Z,26.12
2019-06-15T17:27:06.098Z,26.18
2019-06-15T17:29:34.950Z,26.03
2019-06-15T17:32:06.216Z,25.98
2019-06-15T17:34:36.227Z,25.94
2019-06-15T17:37:06.689Z,25.78
2019-06-15T17:39:37.054Z,25.73
2019-06-15T17:42:07.608Z,25.69
2019-06-15T17:44:36.971Z,25.64
2019-06-15T17:47:26.250Z,25.54
2019-06-15T17:50:14.078Z,25.41
2019-06-15T17:53:01.690Z,25.34
2019-06-15T17:55:49.380Z,25.33
2019-06-15T17:58:37.197Z,25.09
2019-06-15T18:01:26.494Z,25.11
2019-06-15T18:04:16.558Z,25.13
2019-06-15T18:07:03.583Z,25.12
2019-06-15T18:09:51.148Z,25.00
2019-06-15T18:12:38.698Z,24.96
2019-06-15T18:15:26.593Z,25.02
2019-06-15T18:18:16.651Z,24.97
2019-06-15T18:21:03.519Z,24.96
2019-06-15T18:23:51.087Z,24.83
2019-06-15T18:26:44.112Z,24.76
2019-06-15T18:29:32.012Z,24.80
2019-06-15T18:32:19.578Z,24.82
2019-06-15T18:35:07.644Z,24.69
2019-06-15T18:37:55.922Z,24.55
2019-06-15T18:40:43.480Z,24.71
2019-06-15T18:43:31.055Z,24.56
2019-06-15T18:46:18.678Z,24.55
2019-06-15T18:49:06.864Z,24.42
2019-06-15T18:51:56.569Z,24.42
2019-06-15T18:54:43.917Z,24.35
2019-06-15T18:57:31.477Z,24.34
2019-06-15T19:00:19.275Z,24.19
2019-06-15T19:03:07.130Z,24.25
2019-06-15T19:05:56.894Z,24.17
2019-06-15T19:08:46.632Z,24.05
2019-06-15T19:11:33.439Z,23.99
2019-06-15T19:14:21.017Z,23.92
2019-06-15T19:17:08.581Z,23.96
2019-06-15T19:19:57.218Z,23.86
2019-06-15T19:22:47.488Z,23.84
2019-06-15T19:25:36.348Z,23.71
2019-06-15T19:28:23.588Z,23.80
2019-06-15T19:31:11.211Z,23.56
2019-06-15T19:33:58.859Z,23.56
2019-06-15T19:36:46.918Z,23.53
2019-06-15T19:39:36.804Z,23.77
2019-06-15T19:42:25.919Z,23.56
2019-06-15T19:45:16.807Z,23.39
2019-06-15T19:48:03.139Z,23.44
2019-06-15T19:50:50.736Z,23.28
2019-06-15T19:53:38.320Z,23.46
2019-06-15T19:56:26.090Z,23.22
2019-06-15T19:59:13.672Z,23.26
2019-06-15T20:02:01.315Z,23.17
2019-06-15T20:05:00.415Z,23.29
2019-06-15T20:07:39.402Z,23.00
2019-06-15T20:10:28.532Z,22.98
2019-06-15T20:13:16.146Z,22.96
2019-06-15T20:16:07.814Z,22.89
2019-06-15T20:18:57.108Z,22.79
2019-06-15T20:21:46.314Z,22.74
2019-06-15T20:24:36.471Z,22.90
2019-06-15T20:27:23.575Z,22.73
2019-06-15T20:30:11.704Z,22.80
2019-06-15T20:33:00.187Z,22.57
2019-06-15T20:35:47.835Z,22.64
2019-06-15T20:38:36.348Z,22.81
2019-06-15T20:41:26.820Z,22.67
2019-06-15T20:44:13.419Z,22.64
2019-06-15T20:47:00.935Z,22.49
2019-06-15T20:49:48.928Z,22.45
2019-06-15T20:52:38.175Z,22.43
2019-06-15T20:55:26.540Z,22.21
2019-06-15T20:58:16.712Z,22.38
2019-06-15T21:01:03.701Z,22.18
2019-06-15T21:03:51.265Z,22.12
2019-06-15T21:06:41.613Z,21.95
2019-06-15T21:09:29.196Z,21.91
2019-06-15T21:12:16.847Z,21.93
2019-06-15T21:15:07.314Z,21.89
2019-06-15T21:17:57.148Z,21.87
2019-06-15T21:20:46.836Z,21.74
2019-06-15T21:23:33.507Z,21.82
2019-06-15T21:26:21.063Z,21.82
2019-06-15T21:29:08.680Z,21.52
2019-06-15T21:31:56.914Z,21.75
2019-06-15T21:34:48.774Z,21.54
2019-06-15T21:37:37.419Z,21.73
2019-06-15T21:40:27.327Z,21.62
2019-06-15T21:43:16.927Z,21.44
2019-06-15T21:46:06.367Z,21.48
2019-06-15T21:48:56.232Z,21.43
2019-06-15T21:51:43.042Z,21.19
2019-06-15T21:54:30.604Z,21.17
2019-06-15T21:57:18.130Z,21.44
2019-06-15T22:00:18.017Z,21.26
2019-06-15T22:03:10.231Z,21.13
2019-06-15T22:06:03.113Z,20.96
2019-06-15T22:08:48.647Z,20.89
2019-06-15T22:11:36.300Z,21.03
2019-06-15T22:14:23.829Z,20.95
2019-06-15T22:17:11.391Z,20.71
2019-06-15T22:19:59.024Z,20.77
2019-06-15T22:22:47.078Z,20.64
2019-06-15T22:25:36.082Z,20.59
2019-06-15T22:28:23.804Z,20.48
2019-06-15T22:31:11.454Z,20.44
2019-06-15T22:33:58.997Z,20.36
2019-06-15T22:36:47.942Z,20.42
2019-06-15T22:39:37.166Z,20.43
2019-06-15T22:42:24.960Z,20.44
2019-06-15T22:45:12.976Z,20.21
2019-06-15T22:48:00.510Z,20.25
2019-06-15T22:50:48.093Z,20.20
2019-06-15T22:53:36.444Z,20.05
2019-06-15T22:56:26.392Z,19.63
2019-06-15T22:59:13.491Z,20.20
2019-06-15T23:02:01.057Z,19.70
2019-06-15T23:04:48.627Z,19.88
2019-06-15T23:07:36.570Z,19.81
2019-06-15T23:10:24.287Z,19.55
2019-06-15T23:13:11.836Z,19.56
2019-06-15T23:15:59.394Z,19.71
2019-06-15T23:18:47.025Z,19.55
2019-06-15T23:21:37.251Z,19.67
2019-06-15T23:24:23.907Z,19.12
2019-06-15T23:27:11.428Z,19.35
2019-06-15T23:29:58.917Z,19.45
2019-06-15T23:32:47.036Z,19.47
2019-06-15T23:35:39.476Z,19.20
2019-06-15T23:38:27.125Z,19.25
2019-06-15T23:41:16.405Z,19.14
2019-06-15T23:44:04.056Z,18.66
2019-06-15T23:46:51.647Z,18.99
2019-06-15T23:49:39.191Z,18.96
2019-06-15T23:52:27.003Z,18.93
2019-06-15T23:55:15.572Z,19.09
2019-06-15T23:58:03.123Z,18.63
